createdAt,value
2023-02-22T00:00:43.903Z,97335.50
2023-02-22T00:03:15.300Z,97339.31
2023-02-22T00:05:45.214Z,97337.81
2023-02-22T00:08:12.955Z,97335.44
2023-02-22T00:10:40.760Z,97335.56
2023-02-22T00:13:13.265Z,97328.63
2023-02-22T00:15:42.523Z,97332.25
2023-02-22T00:18:11.497Z,97324.47
2023-02-22T00:20:39.954Z,97327.28
2023-02-22T00:23:09.282Z,97324.72
2023-02-22T00:25:37.865Z,97320.59
2023-02-22T00:28:06.131Z,97316.53
2023-02-22T00:30:34.794Z,97317.63
2023-02-22T00:33:04.050Z,97313.47
2023-02-22T00:35:32.267Z,97306.66
2023-02-22T00:38:01.648Z,97312.91
2023-02-22T00:40:31.355Z,97302.75
2023-02-22T00:42:59.983Z,97304.47
2023-02-22T00:45:30.019Z,97304.47
2023-02-22T00:47:58.098Z,97304.38
2023-02-22T00:50:28.981Z,97300.72
2023-02-22T00:52:57.643Z,97300.91
2023-02-22T00:55:27.470Z,97299.88
2023-02-22T00:57:55.619Z,97294.63
2023-02-22T01:00:25.737Z,97293.81
2023-02-22T01:02:53.481Z,97293.81
2023-02-22T01:05:23.189Z,97288.91
2023-02-22T01:07:52.673Z,97278.63
2023-02-22T01:10:22.409Z,97272.69
2023-02-22T01:12:51.055Z,97279.69
2023-02-22T01:15:21.819Z,97275.56
2023-02-22T01:17:50.948Z,97276.69
2023-02-22T01:20:19.799Z,97270.59
2023-02-22T01:22:49.733Z,97262.81
2023-02-22T01:25:20.549Z,97262.81
2023-02-22T01:27:50.235Z,97258.50
2023-02-22T01:30:22.785Z,97256.72
2023-02-22T01:32:51.405Z,97256.81
2023-02-22T01:35:21.653Z,97252.41
2023-02-22T01:37:49.663Z,97258.66
2023-02-22T01:40:21.761Z,97253.28
2023-02-22T01:42:52.871Z,97248.19
2023-02-22T01:45:47.156Z,97248.38
2023-02-22T01:48:20.186Z,97244.06
2023-02-22T01:50:52.758Z,97239.75
2023-02-22T01:53:23.115Z,97243.28
2023-02-22T01:55:52.582Z,97239.09
2023-02-22T01:58:20.912Z,97239.75
2023-02-22T02:00:48.704Z,97236.22
2023-02-22T02:03:21.705Z,97234.50
2023-02-22T02:05:50.099Z,97228.53
2023-02-22T02:08:30.451Z,97231.97
2023-02-22T02:11:00.973Z,97235.63
2023-02-22T02:13:29.878Z,97233.94
2023-02-22T02:15:58.051Z,97228.78
2023-02-22T02:18:27.936Z,97215.44
2023-02-22T02:21:19.993Z,97225.38
2023-02-22T02:24:06.110Z,97231.66
2023-02-22T02:27:01.263Z,97223.81
2023-02-22T02:30:03.774Z,97222.97
2023-02-22T02:32:40.532Z,97219.66
2023-02-22T02:35:12.729Z,97212.75
2023-02-22T02:37:48.552Z,97211.22
2023-02-22T02:40:22.051Z,97214.75
2023-02-22T02:42:55.910Z,97205.31
2023-02-22T02:45:27.789Z,97211.41
2023-02-22T02:47:58.882Z,97206.25
2023-02-22T02:50:29.245Z,97206.31
2023-02-22T02:52:59.592Z,97201.09
2023-02-22T02:55:28.521Z,97206.31
2023-02-22T02:57:56.872Z,97206.41
2023-02-22T03:00:28.441Z,97196.34
2023-02-22T03:03:09.004Z,97209.84
2023-02-22T03:05:59.983Z,97203.84
2023-02-22T03:08:33.665Z,97201.41
2023-02-22T03:11:15.132Z,97193.13
2023-02-22T03:13:52.906Z,97195.84
2023-02-22T03:16:24.671Z,97196.88
2023-02-22T03:18:58.360Z,97187.47
2023-02-22T03:21:31.123Z,97181.59
2023-02-22T03:24:04.337Z,97184.19
2023-02-22T03:26:36.713Z,97177.34
2023-02-22T03:29:06.735Z,97176.75
2023-02-22T03:31:38.067Z,97185.53
2023-02-22T03:34:10.723Z,97180.44
2023-02-22T03:36:41.903Z,97180.44
2023-02-22T03:39:16.088Z,97177.94
2023-02-22T03:41:51.548Z,97176.41
2023-02-22T03:44:22.889Z,97175.72
2023-02-22T03:46:51.838Z,97157.63
2023-02-22T03:49:25.212Z,97169.81
2023-02-22T03:51:53.395Z,97172.41
2023-02-22T03:54:21.149Z,97168.09
2023-02-22T03:56:51.449Z,97168.22
2023-02-22T03:59:19.363Z,97171.81
2023-02-22T04:01:47.052Z,97174.50
2023-02-22T04:04:15.015Z,97166.94
2023-02-22T04:06:44.128Z,97175.34
2023-02-22T04:09:11.899Z,97176.38
2023-02-22T04:11:39.571Z,97179.28
2023-02-22T04:14:07.302Z,97173.38
2023-02-22T04:16:35.005Z,97176.06
2023-02-22T04:19:02.857Z,97173.69
2023-02-22T04:21:30.599Z,97170.38
2023-02-22T04:24:00.964Z,97164.31
2023-02-22T04:26:28.758Z,97164.41
2023-02-22T04:28:56.556Z,97157.50
2023-02-22T04:31:24.319Z,97157.50
2023-02-22T04:33:52.111Z,97154.88
2023-02-22T04:36:21.663Z,97161.88
2023-02-22T04:38:49.471Z,97153.31
2023-02-22T04:41:19.717Z,97138.28
2023-02-22T04:43:47.739Z,97159.59
2023-02-22T04:46:15.656Z,97150.13
2023-02-22T04:48:43.412Z,97146.59
2023-02-22T04:51:11.208Z,97153.44
2023-02-22T04:53:38.927Z,97156.13
2023-02-22T04:56:07.293Z,97149.34
2023-02-22T04:58:36.577Z,97151.97
2023-02-22T05:01:04.656Z,97144.03
2023-02-22T05:03:32.388Z,97141.50
2023-02-22T05:06:00.203Z,97140.75
2023-02-22T05:08:27.892Z,97139.00
2023-02-22T05:10:55.600Z,97143.44
2023-02-22T05:13:23.372Z,97140.00
2023-02-22T05:15:52.520Z,97138.47
2023-02-22T05:18:20.343Z,97135.09
2023-02-22T05:20:48.218Z,97141.31
2023-02-22T05:23:15.981Z,97128.31
2023-02-22T05:25:43.694Z,97131.88
2023-02-22T05:28:14.224Z,97131.88
2023-02-22T05:30:42.294Z,97131.03
2023-02-22T05:33:11.810Z,97126.66
2023-02-22T05:35:39.774Z,97124.78
2023-02-22T05:38:07.967Z,97135.31
2023-02-22T05:40:35.799Z,97136.94
2023-02-22T05:43:03.815Z,97134.31
2023-02-22T05:45:31.595Z,97126.47
2023-02-22T05:47:59.996Z,97127.25
2023-02-22T05:50:29.241Z,97126.16
2023-02-22T05:52:56.943Z,97125.16
2023-02-22T05:55:25.238Z,97126.75
2023-02-22T05:57:53.437Z,97123.41
2023-02-22T06:00:23.530Z,97120.84
2023-02-22T06:02:55.657Z,97122.47
2023-02-22T06:05:23.509Z,97118.91
2023-02-22T06:07:52.644Z,97120.59
2023-02-22T06:10:21.181Z,97118.00
2023-02-22T06:12:49.019Z,97114.63
2023-02-22T06:15:17.512Z,97124.31
2023-02-22T06:17:45.857Z,97119.16
2023-02-22T06:20:15.971Z,97108.78
2023-02-22T06:22:44.766Z,97109.75
2023-02-22T06:25:17.162Z,97107.19
2023-02-22T06:27:44.863Z,97111.66
2023-02-22T06:30:13.756Z,97122.09
2023-02-22T06:32:41.522Z,97115.19
2023-02-22T06:35:09.637Z,97120.47
2023-02-22T06:37:38.632Z,97125.63
2023-02-22T06:40:06.888Z,97130.00
2023-02-22T06:42:36.022Z,97134.38
2023-02-22T06:45:03.834Z,97134.38
2023-02-22T06:47:31.565Z,97134.50
2023-02-22T06:50:00.847Z,97139.53
2023-02-22T06:52:28.620Z,97145.53
2023-02-22T06:54:56.343Z,97148.06
2023-02-22T06:57:24.100Z,97145.38
2023-02-22T06:59:53.145Z,97149.34
2023-02-22T07:02:20.860Z,97162.72
2023-02-22T07:04:48.558Z,97165.00
2023-02-22T07:07:16.296Z,97164.81
2023-02-22T07:09:47.311Z,97166.38
2023-02-22T07:12:15.105Z,97167.91
2023-02-22T07:14:42.828Z,97168.69
2023-02-22T07:17:11.947Z,97171.16
2023-02-22T07:19:39.660Z,97164.91
2023-02-22T07:22:07.399Z,97165.59
2023-02-22T07:24:36.057Z,97161.97
2023-02-22T07:27:03.802Z,97165.28
2023-02-22T07:29:31.873Z,97164.41
2023-02-22T07:31:59.653Z,97172.00
2023-02-22T07:34:28.840Z,97170.09
2023-02-22T07:36:56.562Z,97169.06
2023-02-22T07:39:24.261Z,97170.50
2023-02-22T07:41:51.994Z,97169.34
2023-02-22T07:44:19.713Z,97173.31
2023-02-22T07:46:49.199Z,97169.53
2023-02-22T07:49:17.580Z,97172.56
2023-02-22T07:51:46.706Z,97160.56
2023-02-22T07:54:14.430Z,97165.28
2023-02-22T07:56:46.394Z,97169.00
2023-02-22T07:59:14.100Z,97158.66
2023-02-22T08:01:42.122Z,97156.81
2023-02-22T08:04:09.901Z,97153.66
2023-02-22T08:06:37.618Z,97154.03
2023-02-22T08:09:06.789Z,97161.66
2023-02-22T08:11:34.526Z,97160.63
2023-02-22T08:14:02.203Z,97161.94
2023-02-22T08:16:29.916Z,97155.63
2023-02-22T08:18:57.646Z,97159.38
2023-02-22T08:21:25.362Z,97154.88
2023-02-22T08:23:54.256Z,97153.41
2023-02-22T08:26:25.417Z,97155.69
2023-02-22T08:28:53.173Z,97146.69
2023-02-22T08:31:21.117Z,97152.78
2023-02-22T08:33:50.119Z,97160.56
2023-02-22T08:36:18.650Z,97163.03
2023-02-22T08:38:46.578Z,97159.47
2023-02-22T08:41:14.297Z,97154.66
2023-02-22T08:43:43.421Z,97162.00
2023-02-22T08:46:11.195Z,97158.03
2023-02-22T08:48:39.003Z,97160.66
2023-02-22T08:51:07.001Z,97160.50
2023-02-22T08:53:34.866Z,97157.72
2023-02-22T08:56:02.603Z,97159.28
2023-02-22T08:58:30.317Z,97159.38
2023-02-22T09:00:59.397Z,97153.50
2023-02-22T09:03:27.211Z,97156.81
2023-02-22T09:05:55.004Z,97138.75
2023-02-22T09:08:22.984Z,97157.16
2023-02-22T09:10:51.253Z,97135.13
2023-02-22T09:13:19.073Z,97154.03
2023-02-22T09:15:46.802Z,97154.31
2023-02-22T09:18:18.111Z,97148.88
2023-02-22T09:20:45.922Z,97152.97
2023-02-22T09:23:14.545Z,97152.84
2023-02-22T09:25:42.393Z,97154.22
2023-02-22T09:28:10.338Z,97149.50
2023-02-22T09:30:38.577Z,97151.78
2023-02-22T09:33:10.092Z,97145.84
2023-02-22T09:35:42.495Z,97136.19
2023-02-22T09:38:11.490Z,97138.28
2023-02-22T09:40:45.076Z,97140.59
2023-02-22T09:43:22.760Z,97134.72
2023-02-22T09:45:59.461Z,97130.81
2023-02-22T09:48:27.521Z,97129.13
2023-02-22T09:50:59.469Z,97117.09
2023-02-22T09:53:30.444Z,97129.34
2023-02-22T09:56:00.798Z,97131.44
2023-02-22T09:58:33.796Z,97130.44
2023-02-22T10:01:14.425Z,97131.31
2023-02-22T10:03:50.671Z,97129.00
2023-02-22T10:06:22.535Z,97128.88
2023-02-22T10:08:51.288Z,97131.97
2023-02-22T10:11:29.439Z,97140.78
2023-02-22T10:14:03.530Z,97139.09
2023-02-22T10:16:34.498Z,97145.13
2023-02-22T10:19:10.786Z,97132.16
2023-02-22T10:21:50.575Z,97141.22
2023-02-22T10:24:30.808Z,97141.75
2023-02-22T10:26:59.889Z,97127.63
2023-02-22T10:29:32.685Z,97134.44
2023-02-22T10:32:03.504Z,97129.13
2023-02-22T10:34:36.327Z,97130.63
2023-02-22T10:37:20.514Z,97121.47
2023-02-22T10:39:49.759Z,97130.31
2023-02-22T10:42:22.133Z,97123.31
2023-02-22T10:44:49.943Z,97120.44
2023-02-22T10:47:21.068Z,97112.00
2023-02-22T10:49:52.332Z,97116.22
2023-02-22T10:52:27.039Z,97109.91
2023-02-22T10:55:03.520Z,97113.84
2023-02-22T10:57:42.408Z,97119.84
2023-02-22T11:00:20.436Z,97109.66
2023-02-22T11:02:54.582Z,97118.38
2023-02-22T11:05:36.828Z,97123.03
2023-02-22T11:08:25.906Z,97115.13
2023-02-22T11:10:55.739Z,97109.59
2023-02-22T11:13:29.478Z,97112.19
2023-02-22T11:16:00.182Z,97106.66
2023-02-22T11:18:31.336Z,97105.81
2023-02-22T11:21:04.792Z,97112.59
2023-02-22T11:23:34.878Z,97093.41
2023-02-22T11:26:07.370Z,97097.31
2023-02-22T11:28:35.553Z,97102.00
2023-02-22T11:31:15.698Z,97085.88
2023-02-22T11:33:52.549Z,97093.03
2023-02-22T11:36:37.510Z,97097.28
2023-02-22T11:39:11.551Z,97094.91
2023-02-22T11:41:39.441Z,97086.03
2023-02-22T11:44:16.004Z,97084.38
2023-02-22T11:46:44.744Z,97081.34
2023-02-22T11:49:14.316Z,97069.56
2023-02-22T11:51:52.435Z,97072.97
2023-02-22T11:54:40.064Z,97065.94
2023-02-22T11:57:17.196Z,97068.72
2023-02-22T11:59:56.733Z,97067.28
2023-02-22T12:02:33.913Z,97063.03
2023-02-22T12:05:13.592Z,97064.59
2023-02-22T12:07:50.572Z,97070.84
2023-02-22T12:10:28.315Z,97055.47
2023-02-22T12:13:06.308Z,97058.94
2023-02-22T12:15:40.151Z,97055.91
2023-02-22T12:18:15.629Z,97059.09
2023-02-22T12:20:47.706Z,97067.25
2023-02-22T12:23:20.157Z,97060.56
2023-02-22T12:25:58.660Z,97062.25
2023-02-22T12:28:32.136Z,97055.56
2023-02-22T12:31:08.659Z,97056.38
2023-02-22T12:33:44.255Z,97045.22
2023-02-22T12:36:15.480Z,97046.59
2023-02-22T12:38:45.079Z,97048.28
2023-02-22T12:41:20.128Z,97053.44
2023-02-22T12:43:51.995Z,97044.22
2023-02-22T12:46:22.988Z,97047.44
2023-02-22T12:48:54.929Z,97040.34
2023-02-22T12:51:28.309Z,97042.81
2023-02-22T12:54:04.835Z,97043.44
2023-02-22T12:56:36.216Z,97044.25
2023-02-22T12:59:09.195Z,97047.88
2023-02-22T13:01:40.409Z,97052.44
2023-02-22T13:04:20.227Z,97046.06
2023-02-22T13:06:59.390Z,97047.72
2023-02-22T13:09:43.536Z,97050.66
2023-02-22T13:12:18.289Z,97046.31
2023-02-22T13:14:55.658Z,97039.50
2023-02-22T13:17:33.004Z,97042.31
2023-02-22T13:20:02.616Z,97038.22
2023-02-22T13:22:36.317Z,97038.69
2023-02-22T13:25:09.478Z,97029.50
2023-02-22T13:27:42.793Z,97022.81
2023-02-22T13:30:19.748Z,97030.31
2023-02-22T13:33:02.382Z,97020.13
2023-02-22T13:35:38.730Z,97017.25
2023-02-22T13:38:30.899Z,97024.56
2023-02-22T13:41:19.273Z,97018.63
2023-02-22T13:44:04.407Z,97016.75
2023-02-22T13:46:44.624Z,97025.72
2023-02-22T13:49:39.679Z,97020.56
2023-02-22T13:52:09.796Z,97015.19
2023-02-22T13:54:42.235Z,97016.47
2023-02-22T13:57:20.346Z,96980.56
2023-02-22T13:59:49.644Z,97024.88
2023-02-22T14:02:36.771Z,97020.34
2023-02-22T14:05:38.927Z,97016.56
2023-02-22T14:08:07.240Z,97021.59
2023-02-22T14:10:57.015Z,97022.16
2023-02-22T14:13:26.668Z,97015.03
2023-02-22T14:16:28.978Z,97025.81
2023-02-22T14:19:06.561Z,97014.81
2023-02-22T14:21:35.709Z,97018.66
2023-02-22T14:24:18.905Z,97015.69
2023-02-22T14:26:56.546Z,97016.53
2023-02-22T14:29:25.593Z,97006.06
2023-02-22T14:32:04.607Z,97007.56
2023-02-22T14:34:43.421Z,97003.81
2023-02-22T14:37:15.270Z,97009.78
2023-02-22T14:39:45.999Z,97007.81
2023-02-22T14:42:15.772Z,97012.09
2023-02-22T14:44:50.083Z,97007.84
2023-02-22T14:47:23.096Z,97007.34
2023-02-22T14:49:52.445Z,97004.50
2023-02-22T14:52:26.150Z,97003.06
2023-02-22T14:55:04.429Z,96994.56
2023-02-22T14:57:39.056Z,96996.84
2023-02-22T15:00:30.959Z,97004.25
2023-02-22T15:03:01.274Z,97000.63
2023-02-22T15:05:38.265Z,97002.75
2023-02-22T15:08:08.379Z,96995.81
2023-02-22T15:10:42.995Z,97007.03
2023-02-22T15:13:18.721Z,97005.25
2023-02-22T15:15:49.521Z,97002.69
2023-02-22T15:18:25.292Z,97002.34
2023-02-22T15:20:57.717Z,96998.97
2023-02-22T15:23:27.805Z,97003.00
2023-02-22T15:25:55.678Z,97005.63
2023-02-22T15:28:24.686Z,97001.41
2023-02-22T15:30:52.487Z,97004.44
2023-02-22T15:33:24.687Z,97002.25
2023-02-22T15:35:56.473Z,97002.25
2023-02-22T15:38:29.656Z,97005.56
2023-02-22T15:41:02.617Z,97010.81
2023-02-22T15:43:32.269Z,97008.69
2023-02-22T15:46:00.906Z,97010.16
2023-02-22T15:48:31.728Z,97000.50
2023-02-22T15:51:07.680Z,96994.75
2023-02-22T15:53:41.776Z,97002.94
2023-02-22T15:56:13.758Z,97005.75
2023-02-22T15:58:41.762Z,96986.91
2023-02-22T16:01:12.424Z,96994.63
2023-02-22T16:03:47.147Z,96998.09
2023-02-22T16:06:17.337Z,97008.53
2023-02-22T16:08:55.148Z,96995.09
2023-02-22T16:11:30.017Z,97002.28
2023-02-22T16:14:00.656Z,97003.38
2023-02-22T16:16:31.533Z,97002.47
2023-02-22T16:19:28.870Z,96996.13
2023-02-22T16:22:02.796Z,96996.34
2023-02-22T16:24:33.450Z,97005.31
2023-02-22T16:27:07.941Z,97000.03
2023-02-22T16:29:35.768Z,96995.97
2023-02-22T16:32:03.955Z,96996.91
2023-02-22T16:34:33.178Z,97005.06
2023-02-22T16:37:01.373Z,97005.53
2023-02-22T16:39:30.827Z,97002.25
2023-02-22T16:42:00.331Z,97005.25
2023-02-22T16:44:28.765Z,97006.53
2023-02-22T16:46:57.713Z,97006.75
2023-02-22T16:49:25.743Z,97005.31
2023-02-22T16:51:56.497Z,97003.72
2023-02-22T16:54:26.774Z,97013.78
2023-02-22T16:56:56.078Z,97007.03
2023-02-22T16:59:24.103Z,97011.91
2023-02-22T17:01:51.845Z,97010.03
2023-02-22T17:04:21.179Z,97006.88
2023-02-22T17:06:49.871Z,97014.06
2023-02-22T17:09:20.168Z,97010.88
2023-02-22T17:11:50.110Z,97007.53
2023-02-22T17:14:20.422Z,97010.63
2023-02-22T17:16:48.158Z,97009.13
2023-02-22T17:19:17.284Z,97006.94
2023-02-22T17:21:45.005Z,97009.06
2023-02-22T17:24:13.807Z,97008.56
2023-02-22T17:26:43.160Z,97009.28
2023-02-22T17:29:10.978Z,97016.22
2023-02-22T17:31:38.770Z,97020.88
2023-02-22T17:34:07.243Z,97017.69
2023-02-22T17:36:37.071Z,97023.81
2023-02-22T17:39:05.672Z,97015.19
2023-02-22T17:41:33.851Z,97021.50
2023-02-22T17:44:03.039Z,97020.66
2023-02-22T17:46:31.035Z,97026.13
2023-02-22T17:48:58.787Z,97023.72
2023-02-22T17:51:26.845Z,97022.78
2023-02-22T17:53:54.617Z,97028.97
2023-02-22T17:56:22.741Z,97012.91
2023-02-22T17:58:54.218Z,97024.06
2023-02-22T18:01:27.144Z,97024.25
2023-02-22T18:03:55.734Z,97025.28
2023-02-22T18:06:28.336Z,97025.53
2023-02-22T18:08:56.969Z,97024.69
2023-02-22T18:11:26.785Z,97026.56
2023-02-22T18:13:55.172Z,97025.09
2023-02-22T18:16:25.570Z,97021.75
2023-02-22T18:18:53.792Z,97033.28
2023-02-22T18:21:21.703Z,97010.59
2023-02-22T18:23:49.462Z,97019.03
2023-02-22T18:26:18.472Z,97021.00
2023-02-22T18:28:48.656Z,97021.00
2023-02-22T18:31:18.601Z,97018.59
2023-02-22T18:33:50.245Z,97022.16
2023-02-22T18:36:22.640Z,97017.09
2023-02-22T18:38:51.809Z,97028.69
2023-02-22T18:41:20.891Z,97011.13
2023-02-22T18:43:50.843Z,97013.75
2023-02-22T18:46:20.573Z,97015.66
2023-02-22T18:48:53.211Z,97024.47
2023-02-22T18:51:20.953Z,97025.31
2023-02-22T18:53:50.076Z,97016.69
2023-02-22T18:56:21.859Z,97019.22
2023-02-22T18:58:53.834Z,97025.63
2023-02-22T19:01:22.102Z,97028.25
2023-02-22T19:03:51.934Z,97023.94
2023-02-22T19:06:21.950Z,97023.81
2023-02-22T19:08:50.678Z,97027.50
2023-02-22T19:11:20.061Z,97023.00
2023-02-22T19:13:48.996Z,97018.69
2023-02-22T19:16:20.684Z,97010.91
2023-02-22T19:18:49.815Z,97018.78
2023-02-22T19:21:19.976Z,97019.81
2023-02-22T19:23:48.532Z,97018.13
2023-02-22T19:26:19.530Z,97015.81
2023-02-22T19:28:47.685Z,97021.94
2023-02-22T19:31:17.761Z,97014.97
2023-02-22T19:33:47.960Z,97013.28
2023-02-22T19:36:16.683Z,97014.97
2023-02-22T19:38:46.285Z,97016.88
2023-02-22T19:41:18.156Z,97001.53
2023-02-22T19:43:46.220Z,97001.94
2023-02-22T19:46:14.557Z,97003.81
2023-02-22T19:48:42.300Z,97010.97
2023-02-22T19:51:11.320Z,97002.16
2023-02-22T19:53:40.108Z,97008.88
2023-02-22T19:56:10.807Z,97005.50
2023-02-22T19:58:39.220Z,97009.81
2023-02-22T20:01:13.784Z,97006.75
2023-02-22T20:03:42.121Z,97006.97
2023-02-22T20:06:10.425Z,97004.63
2023-02-22T20:08:42.007Z,97012.50
2023-02-22T20:11:12.021Z,97021.31
2023-02-22T20:13:40.474Z,97010.19
2023-02-22T20:16:09.962Z,97011.03
2023-02-22T20:18:38.070Z,96986.56
2023-02-22T20:21:09.570Z,97010.19
2023-02-22T20:23:40.141Z,97010.94
2023-02-22T20:26:17.281Z,97015.88
2023-02-22T20:28:45.009Z,97009.28
2023-02-22T20:31:14.458Z,97020.41
2023-02-22T20:33:42.768Z,97014.31
2023-02-22T20:36:11.354Z,97017.06
2023-02-22T20:38:39.519Z,97022.41
2023-02-22T20:41:08.092Z,97017.34
2023-02-22T20:43:37.344Z,97015.78
2023-02-22T20:46:06.311Z,97025.22
2023-02-22T20:48:34.935Z,97031.47
2023-02-22T20:51:06.541Z,97031.75
2023-02-22T20:53:34.532Z,97030.63
2023-02-22T20:56:02.769Z,97033.78
2023-02-22T20:58:30.466Z,97028.53
2023-02-22T21:01:04.851Z,97031.06
2023-02-22T21:03:33.660Z,97034.31
2023-02-22T21:06:01.472Z,97033.47
2023-02-22T21:08:29.191Z,97037.69
2023-02-22T21:10:56.916Z,97032.53
2023-02-22T21:13:24.669Z,97025.16
2023-02-22T21:15:52.711Z,97025.38
2023-02-22T21:18:24.685Z,97027.06
2023-02-22T21:20:53.797Z,97026.50
2023-02-22T21:23:21.508Z,97030.38
2023-02-22T21:25:52.427Z,97033.34
2023-02-22T21:28:20.365Z,97041.63
2023-02-22T21:30:48.710Z,97037.41
2023-02-22T21:33:16.905Z,97043.50
2023-02-22T21:35:47.253Z,97038.25
2023-02-22T21:38:15.289Z,97027.41
2023-02-22T21:40:44.551Z,97035.81
2023-02-22T21:43:13.097Z,97027.94
2023-02-22T21:45:41.080Z,97030.56
2023-02-22T21:48:08.834Z,97032.25
2023-02-22T21:50:37.804Z,97033.94
2023-02-22T21:53:07.416Z,97042.25
2023-02-22T21:55:35.939Z,97025.97
2023-02-22T21:58:03.705Z,97030.91
2023-02-22T22:00:38.027Z,97032.41
2023-02-22T22:03:11.639Z,97038.38
2023-02-22T22:05:40.332Z,97030.28
2023-02-22T22:08:13.292Z,97030.50
2023-02-22T22:10:41.024Z,97035.03
2023-02-22T22:13:09.164Z,97033.34
2023-02-22T22:15:37.486Z,97026.22
2023-02-22T22:18:06.640Z,97028.09
2023-02-22T22:20:37.679Z,97017.97
2023-02-22T22:23:05.884Z,97018.94
2023-02-22T22:25:38.105Z,97017.34
2023-02-22T22:28:07.742Z,97028.50
2023-02-22T22:30:37.057Z,96997.34
2023-02-22T22:33:08.385Z,97034.69
2023-02-22T22:35:36.124Z,97023.25
2023-02-22T22:38:03.915Z,97024.19
2023-02-22T22:40:34.329Z,97034.88
2023-02-22T22:43:06.119Z,97030.47
2023-02-22T22:45:33.893Z,97025.03
2023-02-22T22:48:02.247Z,97021.22
2023-02-22T22:50:30.124Z,97025.22
2023-02-22T22:52:58.153Z,97025.03
2023-02-22T22:55:25.866Z,97027.25
2023-02-22T22:57:53.634Z,97021.06
2023-02-22T23:00:30.080Z,97025.16
2023-02-22T23:02:57.948Z,97024.97
2023-02-22T23:05:27.930Z,97018.22
2023-02-22T23:07:57.115Z,97023.28
2023-02-22T23:10:28.130Z,97021.06
2023-02-22T23:12:57.190Z,97026.72
2023-02-22T23:15:26.864Z,97022.59
2023-02-22T23:17:56.182Z,97020.19
2023-02-22T23:20:26.316Z,97021.13
2023-02-22T23:22:54.229Z,97020.28
2023-02-22T23:25:22.272Z,97021.22
2023-02-22T23:27:50.401Z,97018.41
2023-02-22T23:30:18.995Z,97009.44
2023-02-22T23:32:48.894Z,97024.59
2023-02-22T23:35:18.958Z,97022.06
2023-02-22T23:37:53.042Z,97022.72
2023-02-22T23:40:20.949Z,97017.47
2023-02-22T23:42:49.958Z,97022.50
2023-02-22T23:45:23.506Z,97010.97
2023-02-22T23:47:54.923Z,97023.34
2023-02-22T23:50:24.144Z,97016.41
2023-02-22T23:52:56.971Z,97010.44
2023-02-22T23:55:25.533Z,97014.94
2023-02-22T23:57:59.306Z,97011.25
